Axixa do Tocantins, Brazil
Current Conditions -  °F | °C
As of 5:00 PM on Thursday 29 Jan 2015 (Local Time) from SBIZ Reporting Station
Few Clouds Few Clouds  
Wind Chill: 93°   Ceiling: Unl
Heat Index: 105°   Visibility: 6mi
Dew Point: 75°   Wind: 6mph
Humidity: 56%   Direction: 180°S
Pressure: 29.77"   Gusts: NA
Location:  5.62°S, 47.79°W
Report Text: SBIZ 292000Z 18005KT 9999 FEW020 34/24 Q1008
Loading
Personal Weather Stations






























Interactive Weather Map New forecast layout! Learn more

10-Day Weather Forecast

Advertisements
Track Severe Weather on mobile